createdAt,value
2018-02-06T00:00:31.394Z,11.17
2018-02-06T00:02:57.151Z,11.50
2018-02-06T00:05:22.939Z,12.43
2018-02-06T00:07:48.696Z,12.43
2018-02-06T00:10:14.503Z,13.67
2018-02-06T00:12:40.240Z,14.13
2018-02-06T00:15:06.000Z,11.03
2018-02-06T00:17:31.771Z,12.70
2018-02-06T00:19:57.531Z,14.13
2018-02-06T00:22:35.830Z,11.57
2018-02-06T00:25:01.599Z,10.52
2018-02-06T00:27:27.366Z,12.73
2018-02-06T00:29:53.138Z,12.50
2018-02-06T00:32:18.909Z,12.80
2018-02-06T00:34:44.668Z,12.77
2018-02-06T00:37:10.446Z,13.40
2018-02-06T00:39:36.194Z,10.97
2018-02-06T00:42:01.970Z,11.97
2018-02-06T00:44:27.739Z,12.47
2018-02-06T00:46:53.494Z,12.10
2018-02-06T00:49:19.263Z,12.20
2018-02-06T00:51:45.023Z,12.07
2018-02-06T00:54:10.790Z,12.30
2018-02-06T00:56:36.551Z,11.33
2018-02-06T00:59:02.318Z,11.57
2018-02-06T01:01:28.062Z,11.17
2018-02-06T01:03:53.847Z,13.30
2018-02-06T01:06:19.600Z,12.23
2018-02-06T01:08:45.384Z,15.90
2018-02-06T01:11:11.140Z,17.03
2018-02-06T01:13:36.906Z,14.97
2018-02-06T01:16:02.723Z,13.80
2018-02-06T01:18:28.447Z,13.23
2018-02-06T01:20:54.215Z,14.30
2018-02-06T01:23:19.975Z,14.53
2018-02-06T01:25:45.742Z,12.43
2018-02-06T01:28:11.514Z,12.50
2018-02-06T01:30:37.270Z,11.93
2018-02-06T01:33:03.039Z,12.50
2018-02-06T01:35:28.835Z,11.37
2018-02-06T01:37:54.601Z,11.27
2018-02-06T01:40:20.358Z,11.23
2018-02-06T01:42:46.118Z,12.47
2018-02-06T01:45:11.890Z,13.97
2018-02-06T01:47:37.639Z,14.13
2018-02-06T01:50:03.405Z,15.27
2018-02-06T01:52:29.166Z,15.10
2018-02-06T01:54:54.931Z,14.93
2018-02-06T01:57:20.682Z,13.33
2018-02-06T01:59:46.451Z,16.40
2018-02-06T02:02:12.191Z,14.33
2018-02-06T02:04:37.957Z,18.10
2018-02-06T02:07:03.722Z,13.07
2018-02-06T02:09:29.486Z,13.60
2018-02-06T02:11:55.239Z,12.87
2018-02-06T02:14:21.011Z,16.20
2018-02-06T02:16:46.767Z,14.73
2018-02-06T02:19:12.885Z,13.50
2018-02-06T02:21:38.667Z,13.05
2018-02-06T02:24:04.432Z,12.37
2018-02-06T02:26:30.210Z,12.00
2018-02-06T02:28:55.954Z,14.33
2018-02-06T02:31:21.736Z,14.03
2018-02-06T02:33:47.482Z,12.73
2018-02-06T02:36:13.266Z,12.30
2018-02-06T02:38:39.028Z,15.30
2018-02-06T02:41:04.795Z,13.97
2018-02-06T04:40:04.067Z,15.37
2018-02-06T04:42:29.806Z,15.60
2018-02-06T04:44:55.566Z,15.20
2018-02-06T04:47:21.322Z,13.63
2018-02-06T04:49:47.111Z,13.80
2018-02-06T04:52:12.878Z,14.27
2018-02-06T04:54:38.630Z,15.37
2018-02-06T04:57:04.374Z,15.57
2018-02-06T04:59:30.133Z,15.60
2018-02-06T05:01:55.886Z,17.23
2018-02-06T05:04:21.641Z,15.33
2018-02-06T05:06:47.454Z,15.00
2018-02-06T05:09:13.234Z,15.57
2018-02-06T05:11:38.976Z,17.27
2018-02-06T05:14:04.734Z,17.53
2018-02-06T05:16:30.467Z,16.07
2018-02-06T05:18:56.229Z,15.80
2018-02-06T05:21:21.994Z,17.00
2018-02-06T05:23:47.745Z,14.40
2018-02-06T05:26:13.502Z,17.37
2018-02-06T05:28:39.250Z,16.03
2018-02-06T05:31:05.007Z,17.10
2018-02-06T05:33:30.756Z,17.10
2018-02-06T05:35:56.522Z,23.20
2018-02-06T05:38:22.263Z,24.03
2018-02-06T05:40:48.026Z,26.63
2018-02-06T05:43:13.786Z,21.80
2018-02-06T05:45:39.582Z,23.07
2018-02-06T05:48:05.277Z,24.87
2018-02-06T05:50:31.018Z,26.17
2018-02-06T05:52:56.759Z,23.40
2018-02-06T05:55:22.507Z,21.43
2018-02-06T05:57:48.243Z,20.53
2018-02-06T06:00:13.998Z,17.70
2018-02-06T06:02:39.739Z,21.23
2018-02-06T06:05:05.506Z,19.37
2018-02-06T06:07:31.270Z,19.17
2018-02-06T06:09:57.006Z,21.17
2018-02-06T06:12:22.767Z,18.73
2018-02-06T06:14:48.515Z,18.60
2018-02-06T06:17:14.258Z,20.27
2018-02-06T06:19:39.991Z,21.67
2018-02-06T06:22:05.750Z,22.13
2018-02-06T06:24:31.491Z,20.37
2018-02-06T06:26:57.252Z,21.03
2018-02-06T06:29:22.991Z,17.43
2018-02-06T06:31:48.750Z,21.47
2018-02-06T06:34:14.483Z,20.60
2018-02-06T06:36:40.242Z,19.83
2018-02-06T06:39:05.978Z,19.20
2018-02-06T06:41:31.730Z,20.13
2018-02-06T06:43:57.470Z,18.20
2018-02-06T06:46:23.236Z,19.33
2018-02-06T06:48:48.982Z,20.80
2018-02-06T06:51:14.735Z,22.97
2018-02-06T06:53:40.507Z,19.03
2018-02-06T06:56:06.255Z,21.33
2018-02-06T06:58:32.014Z,19.63
2018-02-06T07:00:57.774Z,21.13
2018-02-06T07:03:23.528Z,19.53
2018-02-06T07:05:49.276Z,19.40
2018-02-06T07:08:15.027Z,20.10
2018-02-06T07:10:40.778Z,21.00
2018-02-06T07:13:06.538Z,19.37
2018-02-06T07:15:32.284Z,16.73
2018-02-06T07:17:58.042Z,21.40
2018-02-06T07:20:24.739Z,21.13
2018-02-06T07:22:50.503Z,21.33
2018-02-06T07:25:16.250Z,22.77
2018-02-06T07:27:42.019Z,22.30
2018-02-06T07:30:07.764Z,19.77
2018-02-06T07:32:33.515Z,21.00
2018-02-06T07:34:59.279Z,20.90
2018-02-06T07:37:25.033Z,20.70
2018-02-06T07:39:50.790Z,20.93
2018-02-06T07:42:16.531Z,21.80
2018-02-06T07:44:42.309Z,24.93
2018-02-06T07:47:08.051Z,22.10
2018-02-06T07:49:33.811Z,19.80
2018-02-06T07:51:59.567Z,22.90
2018-02-06T07:54:25.323Z,22.87
2018-02-06T07:56:51.066Z,21.70
2018-02-06T07:59:16.831Z,23.33
2018-02-06T08:01:42.575Z,21.63
2018-02-06T08:04:08.331Z,24.20
2018-02-06T08:06:34.080Z,24.43
2018-02-06T08:08:59.838Z,23.70
2018-02-06T08:11:25.578Z,23.03
2018-02-06T08:13:51.334Z,22.57
2018-02-06T08:16:17.087Z,22.73
2018-02-06T08:18:42.835Z,21.80
2018-02-06T08:21:08.595Z,22.00
2018-02-06T08:23:34.404Z,21.23
2018-02-06T08:26:00.188Z,22.67
2018-02-06T08:28:32.840Z,27.53
2018-02-06T08:30:58.599Z,25.27
2018-02-06T08:33:24.346Z,21.80
2018-02-06T08:35:50.102Z,20.60
2018-02-06T08:38:15.855Z,24.17
2018-02-06T08:40:41.622Z,20.93
2018-02-06T08:43:07.367Z,21.50
2018-02-06T08:45:33.110Z,23.57
2018-02-06T08:47:58.856Z,22.13
2018-02-06T08:50:24.621Z,22.23
2018-02-06T08:52:50.368Z,24.67
2018-02-06T08:55:16.126Z,26.00
2018-02-06T08:57:41.862Z,21.40
2018-02-06T09:00:07.676Z,27.53
2018-02-06T09:02:33.420Z,23.40
2018-02-06T09:04:59.186Z,20.13
2018-02-06T09:07:24.927Z,24.80
2018-02-06T09:09:50.687Z,25.03
2018-02-06T09:12:16.430Z,21.03
2018-02-06T09:14:42.183Z,22.83
2018-02-06T09:17:07.942Z,21.13
2018-02-06T09:19:33.675Z,20.20
2018-02-06T09:21:59.725Z,18.07
2018-02-06T09:24:25.510Z,19.58
2018-02-06T09:26:51.292Z,17.20
2018-02-06T09:29:17.111Z,20.67
2018-02-06T09:31:42.862Z,16.03
2018-02-06T09:34:08.598Z,18.47
2018-02-06T09:36:34.362Z,16.60
2018-02-06T09:39:00.103Z,19.00
2018-02-06T09:41:25.859Z,20.70
2018-02-06T09:43:51.610Z,17.07
2018-02-06T09:46:17.368Z,18.33
2018-02-06T09:48:43.108Z,15.20
2018-02-06T09:51:08.854Z,14.67
2018-02-06T09:53:34.602Z,17.37
2018-02-06T09:56:00.355Z,20.60
2018-02-06T09:58:26.116Z,19.43
2018-02-06T10:00:51.871Z,16.17
2018-02-06T10:03:17.627Z,15.80
2018-02-06T10:05:43.377Z,14.63
2018-02-06T10:08:09.129Z,16.73
2018-02-06T10:10:34.870Z,16.47
2018-02-06T10:13:00.630Z,12.87
2018-02-06T10:15:26.379Z,14.73
2018-02-06T10:17:52.138Z,14.33
2018-02-06T10:20:17.882Z,13.33
2018-02-06T10:22:43.641Z,13.63
2018-02-06T10:25:09.393Z,12.53
2018-02-06T10:27:35.161Z,18.33
2018-02-06T10:30:00.904Z,11.93
2018-02-06T10:32:26.664Z,11.37
2018-02-06T10:34:52.414Z,10.57
2018-02-06T10:37:18.178Z,13.13
2018-02-06T10:39:43.926Z,9.73
2018-02-06T10:42:09.667Z,11.17
2018-02-06T10:44:35.422Z,9.97
2018-02-06T10:47:01.159Z,9.37
2018-02-06T10:49:26.924Z,9.47
2018-02-06T10:51:52.670Z,9.73
2018-02-06T10:54:18.536Z,9.10
2018-02-06T10:56:44.278Z,7.77
2018-02-06T10:59:10.134Z,9.17
2018-02-06T11:01:35.894Z,6.83
2018-02-06T11:04:01.703Z,10.20
2018-02-06T11:06:27.448Z,7.10
2018-02-06T11:08:53.213Z,6.60
2018-02-06T11:11:18.956Z,8.47
2018-02-06T11:13:44.710Z,7.30
2018-02-06T11:16:10.468Z,9.07
2018-02-06T11:18:36.217Z,10.43
2018-02-06T11:21:01.963Z,12.80
2018-02-06T11:23:27.718Z,10.27
2018-02-06T11:25:53.478Z,8.53
2018-02-06T11:28:19.225Z,8.03
2018-02-06T11:30:44.984Z,6.87
2018-02-06T11:33:10.726Z,7.37
2018-02-06T11:35:36.466Z,7.47
2018-02-06T11:38:02.217Z,9.23
2018-02-06T11:40:27.991Z,6.73
2018-02-06T11:42:53.734Z,7.13
2018-02-06T11:45:19.547Z,8.60
2018-02-06T11:47:45.283Z,5.80
2018-02-06T11:50:11.055Z,6.83
2018-02-06T11:52:36.825Z,6.93
2018-02-06T11:55:02.590Z,7.77
2018-02-06T11:57:28.337Z,7.17
2018-02-06T11:59:54.087Z,6.43
2018-02-06T12:02:19.826Z,7.30
2018-02-06T12:04:45.555Z,7.20
2018-02-06T12:07:11.299Z,6.93
2018-02-06T12:09:37.042Z,7.03
2018-02-06T12:12:02.789Z,6.03
2018-02-06T12:14:28.548Z,5.97
2018-02-06T12:16:54.345Z,6.63
2018-02-06T12:19:20.054Z,6.37
2018-02-06T12:21:45.814Z,6.70
2018-02-06T12:24:11.554Z,6.13
2018-02-06T12:26:37.319Z,5.73
2018-02-06T12:29:03.046Z,5.50
2018-02-06T12:31:28.806Z,5.10
2018-02-06T12:33:54.555Z,5.47
2018-02-06T12:36:20.324Z,6.27
2018-02-06T12:38:46.071Z,5.07
2018-02-06T12:41:11.834Z,4.67
2018-02-06T12:43:37.584Z,4.27
2018-02-06T12:46:03.338Z,4.80
2018-02-06T12:48:29.094Z,5.50
2018-02-06T12:50:54.822Z,4.80
2018-02-06T12:53:20.575Z,4.77
2018-02-06T12:55:46.327Z,6.27
2018-02-06T12:58:12.096Z,4.53
2018-02-06T13:00:37.842Z,5.20
2018-02-06T13:03:03.595Z,5.20
2018-02-06T13:05:30.139Z,5.28
2018-02-06T13:07:55.894Z,4.50
2018-02-06T13:10:21.640Z,7.07
2018-02-06T13:12:47.402Z,6.03
2018-02-06T13:15:13.155Z,5.27
2018-02-06T13:17:38.906Z,5.67
2018-02-06T13:20:04.662Z,6.13
2018-02-06T13:22:30.390Z,6.57
2018-02-06T13:24:56.158Z,6.63
2018-02-06T13:27:21.897Z,6.60
2018-02-06T13:29:47.639Z,5.87
2018-02-06T13:32:13.376Z,6.00
2018-02-06T13:34:39.117Z,7.00
2018-02-06T13:37:04.862Z,5.63
2018-02-06T13:39:30.627Z,6.33
2018-02-06T13:41:56.376Z,5.93
2018-02-06T13:44:22.141Z,8.10
2018-02-06T13:46:47.885Z,7.27
2018-02-06T13:49:13.650Z,6.93
2018-02-06T13:51:39.402Z,6.97
2018-02-06T13:54:05.195Z,6.10
2018-02-06T13:56:30.942Z,7.60
2018-02-06T13:58:56.692Z,5.57
2018-02-06T14:01:22.447Z,7.30
2018-02-06T14:03:48.217Z,6.00
2018-02-06T14:06:13.966Z,7.60
2018-02-06T14:08:39.730Z,7.40
2018-02-06T14:11:05.499Z,8.17
2018-02-06T14:13:31.251Z,7.63
2018-02-06T14:15:57.031Z,8.23
2018-02-06T14:18:22.783Z,7.67
2018-02-06T14:20:48.570Z,7.73
2018-02-06T14:23:14.311Z,5.70
2018-02-06T14:25:40.082Z,6.43
2018-02-06T14:28:05.831Z,6.73
2018-02-06T14:30:31.596Z,8.97
2018-02-06T14:32:57.333Z,6.83
2018-02-06T14:35:23.246Z,10.33
2018-02-06T14:37:49.794Z,5.70
2018-02-06T14:40:15.546Z,6.07
2018-02-06T14:42:41.353Z,6.37
2018-02-06T14:45:07.110Z,6.13
2018-02-06T14:47:32.874Z,7.00
2018-02-06T14:49:58.618Z,6.40
2018-02-06T14:52:24.383Z,6.07
2018-02-06T14:54:50.127Z,7.53
2018-02-06T14:57:15.942Z,5.73
2018-02-06T14:59:41.683Z,5.20
2018-02-06T15:02:07.442Z,5.93
2018-02-06T15:04:33.181Z,6.27
2018-02-06T15:06:58.945Z,5.93
2018-02-06T15:09:24.695Z,6.00
2018-02-06T15:11:50.442Z,5.50
2018-02-06T15:14:16.193Z,6.67
2018-02-06T15:16:41.948Z,7.53
2018-02-06T15:19:07.706Z,7.73
2018-02-06T15:21:33.460Z,6.57
2018-02-06T15:23:59.206Z,7.93
2018-02-06T15:26:24.954Z,9.00
2018-02-06T15:28:50.707Z,6.93
2018-02-06T15:31:16.460Z,7.20
2018-02-06T15:33:42.210Z,9.00
2018-02-06T15:36:07.963Z,8.33
2018-02-06T15:38:33.736Z,10.43
2018-02-06T15:40:59.478Z,9.10
2018-02-06T15:43:25.234Z,8.23
2018-02-06T15:45:51.003Z,11.43
2018-02-06T15:48:16.762Z,11.37
2018-02-06T15:50:42.514Z,12.57
2018-02-06T15:53:08.289Z,10.13
2018-02-06T15:55:34.048Z,10.97
2018-02-06T15:57:59.810Z,14.50
2018-02-06T16:00:33.701Z,16.43
2018-02-06T16:02:59.475Z,16.67
2018-02-06T16:05:25.215Z,18.33
2018-02-06T16:07:50.971Z,14.00
2018-02-06T16:10:16.750Z,16.27
2018-02-06T16:12:42.494Z,17.33
2018-02-06T16:15:08.258Z,13.73
2018-02-06T16:17:34.011Z,12.67
2018-02-06T16:19:59.784Z,14.70
2018-02-06T16:22:25.540Z,13.77
2018-02-06T16:24:51.311Z,11.30
2018-02-06T16:27:17.066Z,11.87
2018-02-06T16:29:42.830Z,12.17
2018-02-06T16:32:08.598Z,14.80
2018-02-06T16:34:34.362Z,11.23
2018-02-06T16:37:00.118Z,12.97
2018-02-06T16:39:25.875Z,12.30
2018-02-06T16:41:51.631Z,18.17
2018-02-06T16:44:17.394Z,20.83
2018-02-06T16:46:43.151Z,16.47
2018-02-06T16:49:08.910Z,16.50
2018-02-06T16:51:34.696Z,20.47
2018-02-06T16:54:00.450Z,20.53
2018-02-06T16:56:26.215Z,20.43
2018-02-06T16:58:51.973Z,23.97
2018-02-06T17:01:17.742Z,30.10
2018-02-06T17:03:43.482Z,38.23
2018-02-06T17:06:09.246Z,37.60
2018-02-06T17:08:34.999Z,36.50
2018-02-06T17:11:00.767Z,33.33
2018-02-06T17:13:26.514Z,40.47
2018-02-06T17:15:52.275Z,41.50
2018-02-06T17:18:18.024Z,43.30
2018-02-06T17:20:43.789Z,44.90
2018-02-06T17:23:09.536Z,46.53
2018-02-06T17:25:35.303Z,58.07
2018-02-06T17:28:01.054Z,63.83
2018-02-06T17:30:26.814Z,55.80
2018-02-06T17:32:52.554Z,39.70
2018-02-06T17:35:18.318Z,40.10
2018-02-06T17:37:44.079Z,41.20
2018-02-06T17:40:16.879Z,37.00
2018-02-06T17:42:42.640Z,39.22
2018-02-06T17:45:08.387Z,35.70
2018-02-06T17:47:34.159Z,36.23
2018-02-06T17:49:59.909Z,34.77
2018-02-06T17:52:25.666Z,32.30
2018-02-06T17:54:51.416Z,32.10
2018-02-06T17:57:17.183Z,31.00
2018-02-06T17:59:42.930Z,28.63
2018-02-06T18:02:08.711Z,26.53
2018-02-06T18:04:34.462Z,22.93
2018-02-06T18:07:00.210Z,24.03
2018-02-06T18:09:25.958Z,21.83
2018-02-06T18:11:51.708Z,28.03
2018-02-06T18:14:17.466Z,28.83
2018-02-06T18:16:43.206Z,28.03
2018-02-06T18:19:08.975Z,28.50
2018-02-06T18:21:34.721Z,29.07
2018-02-06T18:24:00.503Z,26.43
2018-02-06T18:26:26.259Z,39.27
2018-02-06T18:28:52.015Z,36.50
2018-02-06T18:31:17.827Z,32.97
2018-02-06T18:33:43.539Z,30.70
2018-02-06T18:36:09.494Z,31.67
2018-02-06T18:38:35.449Z,29.57
2018-02-06T18:41:01.206Z,30.92
2018-02-06T18:43:26.972Z,30.93
2018-02-06T18:45:52.723Z,27.43
2018-02-06T18:48:18.495Z,30.90
2018-02-06T18:50:44.227Z,36.50
2018-02-06T18:53:09.987Z,37.33
2018-02-06T18:55:35.755Z,30.23
2018-02-06T18:58:01.499Z,31.60
2018-02-06T19:00:27.255Z,35.50
2018-02-06T19:02:53.003Z,34.90
2018-02-06T19:05:18.757Z,34.73
2018-02-06T19:07:44.509Z,29.07
2018-02-06T19:10:10.268Z,25.20
2018-02-06T19:12:36.039Z,29.40
2018-02-06T19:15:01.840Z,19.63
2018-02-06T19:17:27.558Z,20.77
2018-02-06T19:19:53.318Z,21.27
2018-02-06T19:22:19.075Z,23.80
2018-02-06T19:24:44.818Z,23.37
2018-02-06T19:27:10.573Z,23.57
2018-02-06T19:29:36.315Z,23.83
2018-02-06T19:32:02.068Z,23.17
2018-02-06T19:34:27.826Z,22.23
2018-02-06T19:36:53.574Z,22.53
2018-02-06T19:39:19.350Z,21.27
2018-02-06T19:41:45.110Z,20.63
2018-02-06T19:44:10.872Z,19.07
2018-02-06T19:46:36.637Z,20.37
2018-02-06T19:49:02.394Z,22.77
2018-02-06T19:51:28.158Z,23.10
2018-02-06T19:53:53.921Z,24.33
2018-02-06T19:56:19.689Z,23.57
2018-02-06T19:58:45.439Z,24.67
2018-02-06T20:01:11.198Z,23.50
2018-02-06T20:03:36.970Z,25.17
2018-02-06T20:06:02.734Z,29.03
2018-02-06T20:08:28.490Z,28.40
2018-02-06T20:10:54.260Z,35.87
2018-02-06T20:13:20.003Z,34.27
2018-02-06T20:15:45.760Z,31.80
2018-02-06T20:18:11.512Z,32.70
2018-02-06T20:20:37.280Z,32.13
2018-02-06T20:23:03.043Z,34.77
2018-02-06T20:25:28.798Z,30.90
2018-02-06T20:27:54.567Z,37.23
2018-02-06T20:30:20.321Z,32.57
2018-02-06T20:32:46.087Z,30.37
2018-02-06T20:35:11.841Z,33.30
2018-02-06T20:37:37.607Z,38.23
2018-02-06T20:40:03.358Z,48.43
2018-02-06T20:42:29.114Z,39.20
2018-02-06T20:44:54.875Z,33.47
2018-02-06T20:47:20.627Z,38.57
2018-02-06T20:49:46.387Z,37.73
2018-02-06T20:52:12.138Z,34.20
2018-02-06T20:54:37.919Z,37.00
2018-02-06T20:57:03.793Z,35.27
2018-02-06T20:59:29.541Z,33.57
2018-02-06T21:01:55.311Z,39.40
2018-02-06T21:04:21.080Z,34.47
2018-02-06T21:06:46.843Z,39.27
2018-02-06T21:09:12.583Z,34.43
2018-02-06T21:11:38.330Z,35.70
2018-02-06T21:14:04.079Z,43.50
2018-02-06T21:16:31.047Z,35.50
2018-02-06T21:18:56.786Z,36.72
2018-02-06T21:21:23.359Z,34.20
2018-02-06T21:23:49.207Z,31.75
2018-02-06T21:26:15.195Z,33.10
2018-02-06T21:28:40.968Z,33.70
2018-02-06T21:31:06.710Z,31.23
2018-02-06T21:33:32.695Z,30.17
2018-02-06T21:35:58.456Z,33.97
2018-02-06T21:38:24.210Z,32.23
2018-02-06T21:40:49.974Z,30.07
2018-02-06T21:43:15.767Z,31.77
2018-02-06T21:45:41.508Z,32.20
2018-02-06T21:48:07.270Z,34.70
2018-02-06T21:50:33.031Z,34.30
2018-02-06T21:52:58.799Z,39.43
2018-02-06T21:55:24.546Z,39.83
2018-02-06T21:57:50.573Z,36.33
2018-02-06T22:00:16.334Z,33.00
2018-02-06T22:02:42.075Z,34.20
2018-02-06T22:05:07.834Z,34.23
2018-02-06T22:07:33.570Z,36.47
2018-02-06T22:09:59.323Z,35.23
2018-02-06T22:12:25.075Z,40.27
2018-02-06T22:14:50.969Z,42.90
2018-02-06T22:17:16.739Z,42.40
2018-02-06T22:19:42.500Z,42.43
2018-02-06T22:22:09.247Z,44.23
2018-02-06T22:24:35.042Z,41.00
2018-02-06T22:27:00.779Z,36.07
2018-02-06T22:29:26.551Z,36.90
2018-02-06T22:31:52.297Z,32.40
2018-02-06T22:34:18.056Z,29.20
2018-02-06T22:36:43.978Z,29.43
2018-02-06T22:39:11.063Z,30.23
2018-02-06T22:41:36.897Z,27.48
2018-02-06T22:44:03.410Z,34.83
2018-02-06T22:46:29.251Z,29.87
2018-02-06T22:48:56.966Z,36.03
2018-02-06T22:51:23.389Z,38.72
2018-02-06T22:53:49.610Z,44.92
2018-02-06T22:56:16.227Z,43.33
2018-02-06T22:58:42.006Z,33.67
2018-02-06T23:01:07.762Z,40.10
2018-02-06T23:03:33.515Z,36.23
2018-02-06T23:05:59.286Z,33.67
2018-02-06T23:08:25.046Z,31.30
2018-02-06T23:10:50.798Z,33.47
2018-02-06T23:13:16.557Z,34.13
2018-02-06T23:15:42.306Z,33.73
2018-02-06T23:18:08.054Z,37.37
2018-02-06T23:20:33.807Z,36.63
2018-02-06T23:22:59.572Z,38.60
2018-02-06T23:25:25.327Z,36.33
2018-02-06T23:27:51.081Z,46.70
2018-02-06T23:30:16.835Z,41.30
2018-02-06T23:32:42.591Z,37.57
2018-02-06T23:35:08.346Z,34.67
2018-02-06T23:37:34.122Z,40.57
2018-02-06T23:39:59.867Z,33.20
2018-02-06T23:42:25.629Z,29.53
2018-02-06T23:44:51.386Z,28.57
2018-02-06T23:47:17.149Z,33.47
2018-02-06T23:49:42.878Z,30.30
2018-02-06T23:52:08.635Z,34.00
2018-02-06T23:54:34.382Z,31.90
2018-02-06T23:57:00.152Z,31.00
2018-02-06T23:59:25.919Z,28.83
